createdAt,value
2018-02-07T00:00:37.410Z,28.77
2018-02-07T00:03:04.931Z,29.00
2018-02-07T00:05:32.470Z,29.67
2018-02-07T00:07:59.984Z,28.98
2018-02-07T00:10:28.254Z,29.05
2018-02-07T00:12:56.546Z,29.87
2018-02-07T00:15:24.055Z,30.27
2018-02-07T00:17:51.599Z,27.98
2018-02-07T00:20:19.131Z,29.30
2018-02-07T00:22:46.635Z,30.50
2018-02-07T00:25:14.159Z,28.35
2018-02-07T00:27:41.706Z,26.50
2018-02-07T00:30:09.228Z,28.90
2018-02-07T00:32:36.774Z,29.33
2018-02-07T00:35:04.283Z,29.08
2018-02-07T00:37:31.816Z,27.48
2018-02-07T00:40:00.108Z,28.23
2018-02-07T00:42:27.619Z,27.95
2018-02-07T00:44:55.166Z,28.40
2018-02-07T00:47:22.681Z,29.15
2018-02-07T00:49:50.187Z,29.05
2018-02-07T00:52:17.737Z,26.98
2018-02-07T00:54:45.262Z,27.50
2018-02-07T00:57:12.805Z,28.92
2018-02-07T00:59:41.073Z,27.27
2018-02-07T01:02:09.386Z,27.37
2018-02-07T01:04:36.916Z,28.12
2018-02-07T01:07:04.434Z,28.45
2018-02-07T01:09:31.965Z,27.75
2018-02-07T01:11:59.465Z,28.05
2018-02-07T01:14:26.991Z,29.60
2018-02-07T01:16:54.500Z,27.20
2018-02-07T01:19:22.816Z,26.52
2018-02-07T01:21:50.329Z,28.55
2018-02-07T01:24:17.867Z,26.20
2018-02-07T01:26:45.398Z,27.77
2018-02-07T01:29:13.680Z,26.80
2018-02-07T01:31:41.196Z,26.92
2018-02-07T01:34:09.509Z,27.55
2018-02-07T01:36:37.020Z,27.13
2018-02-07T01:39:04.573Z,26.70
2018-02-07T01:41:32.116Z,27.08
2018-02-07T01:43:59.658Z,27.48
2018-02-07T01:46:27.163Z,26.25
2018-02-07T01:48:55.465Z,26.87
2018-02-07T01:51:22.997Z,27.67
2018-02-07T01:53:51.293Z,27.75
2018-02-07T01:56:18.800Z,26.67
2018-02-07T01:58:46.338Z,26.85
2018-02-07T02:01:14.610Z,26.85
2018-02-07T02:03:42.144Z,27.58
2018-02-07T02:06:09.650Z,27.45
2018-02-07T02:08:37.158Z,27.70
2018-02-07T02:11:04.691Z,25.45
2018-02-07T02:13:32.198Z,26.10
2018-02-07T02:15:59.717Z,27.90
2018-02-07T02:18:27.992Z,27.20
2018-02-07T02:20:56.279Z,26.50
2018-02-07T02:23:24.554Z,25.67
2018-02-07T02:25:52.107Z,26.30
2018-02-07T02:28:20.407Z,25.55
2018-02-07T02:30:47.949Z,26.60
2018-02-07T02:33:16.244Z,24.35
2018-02-07T02:35:55.632Z,24.98
2018-02-07T02:38:23.173Z,24.37
2018-02-07T02:40:50.703Z,26.00
2018-02-07T02:43:18.229Z,24.35
2018-02-07T02:45:46.542Z,24.12
2018-02-07T02:48:14.051Z,24.12
2018-02-07T02:50:41.552Z,25.17
2018-02-07T02:53:09.082Z,24.45
2018-02-07T02:55:37.380Z,26.48
2018-02-07T02:58:04.914Z,26.48
2018-02-07T03:00:33.228Z,24.87
2018-02-07T03:03:00.752Z,25.50
2018-02-07T03:05:29.041Z,25.80
2018-02-07T03:07:56.555Z,25.83
2018-02-07T03:10:24.080Z,25.15
2018-02-07T03:12:51.605Z,24.10
2018-02-07T03:15:19.873Z,24.63
2018-02-07T03:17:48.197Z,25.62
2018-02-07T03:20:16.474Z,25.50
2018-02-07T03:22:43.988Z,24.87
2018-02-07T03:25:12.299Z,25.25
2018-02-07T03:27:39.805Z,24.95
2018-02-07T03:30:07.356Z,25.88
2018-02-07T03:32:34.911Z,25.48
2018-02-07T03:35:02.429Z,25.50
2018-02-07T03:37:29.943Z,24.70
2018-02-07T03:39:57.449Z,24.40
2018-02-07T03:42:25.011Z,24.70
2018-02-07T03:44:52.552Z,24.10
2018-02-07T03:47:20.815Z,23.50
2018-02-07T03:49:49.116Z,25.25
2018-02-07T03:52:16.620Z,23.90
2018-02-07T03:54:44.133Z,23.65
2018-02-07T03:57:11.679Z,23.62
2018-02-07T03:59:39.186Z,23.73
2018-02-07T04:02:06.689Z,23.92
2018-02-07T04:04:34.217Z,23.50
2018-02-07T04:07:01.716Z,22.45
2018-02-07T04:09:29.453Z,25.50
2018-02-07T04:11:56.991Z,24.15
2018-02-07T04:14:24.504Z,23.17
2018-02-07T04:16:52.013Z,23.38
2018-02-07T04:19:19.532Z,22.98
2018-02-07T04:21:47.061Z,23.67
2018-02-07T04:24:15.338Z,21.55
2018-02-07T04:26:43.634Z,23.55
2018-02-07T04:29:11.156Z,23.08
2018-02-07T04:31:39.452Z,21.77
2018-02-07T04:34:07.751Z,24.25
2018-02-07T04:36:35.260Z,24.20
2018-02-07T04:39:02.808Z,25.50
2018-02-07T04:41:30.339Z,24.55
2018-02-07T04:43:57.859Z,24.25
2018-02-07T04:46:26.149Z,23.35
2018-02-07T04:48:53.666Z,23.15
2018-02-07T04:51:21.188Z,22.80
2018-02-07T04:53:48.721Z,24.00
2018-02-07T04:56:16.229Z,24.08
2018-02-07T04:58:43.766Z,23.52
2018-02-07T05:01:11.300Z,24.42
2018-02-07T05:03:38.806Z,25.15
2018-02-07T05:06:06.340Z,24.95
2018-02-07T05:08:33.868Z,24.87
2018-02-07T05:11:02.175Z,25.58
2018-02-07T05:13:29.687Z,24.00
2018-02-07T05:15:57.977Z,25.35
2018-02-07T05:18:26.270Z,25.90
2018-02-07T05:20:53.782Z,23.58
2018-02-07T05:23:21.349Z,23.87
2018-02-07T05:25:48.863Z,23.98
2018-02-07T05:28:16.414Z,24.70
2018-02-07T05:30:43.959Z,25.58
2018-02-07T05:33:11.469Z,22.23
2018-02-07T05:35:39.005Z,23.70
2018-02-07T05:38:06.516Z,26.05
2018-02-07T05:40:34.797Z,24.25
2018-02-07T05:43:03.099Z,24.40
2018-02-07T05:45:30.630Z,26.55
2018-02-07T05:47:58.933Z,25.33
2018-02-07T05:50:26.448Z,24.75
2018-02-07T05:52:53.964Z,23.95
2018-02-07T05:55:21.512Z,24.45
2018-02-07T05:57:49.043Z,24.45
2018-02-07T06:00:17.334Z,25.55
2018-02-07T06:02:44.843Z,25.17
2018-02-07T06:05:12.375Z,24.42
2018-02-07T06:07:39.927Z,25.90
2018-02-07T06:10:07.425Z,27.10
2018-02-07T06:12:34.958Z,26.62
2018-02-07T06:15:02.473Z,27.30
2018-02-07T06:17:30.791Z,27.10
2018-02-07T06:19:58.309Z,27.73
2018-02-07T06:22:25.861Z,27.40
2018-02-07T06:24:54.167Z,27.40
2018-02-07T06:27:21.717Z,25.48
2018-02-07T06:29:49.251Z,27.27
2018-02-07T06:32:17.519Z,25.50
2018-02-07T06:34:45.628Z,26.98
2018-02-07T06:37:13.995Z,26.92
2018-02-07T06:39:41.518Z,27.20
2018-02-07T06:42:09.052Z,30.60
2018-02-07T06:44:36.570Z,28.87
2018-02-07T06:47:04.094Z,28.58
2018-02-07T06:49:31.645Z,28.70
2018-02-07T06:51:59.211Z,28.33
2018-02-07T06:54:26.788Z,26.55
2018-02-07T06:56:55.062Z,26.40
2018-02-07T06:59:23.399Z,26.58
2018-02-07T07:01:50.936Z,26.62
2018-02-07T07:04:18.472Z,27.20
2018-02-07T07:06:46.787Z,25.73
2018-02-07T07:09:14.353Z,26.55
2018-02-07T07:11:41.887Z,25.52
2018-02-07T07:14:09.427Z,27.85
2018-02-07T07:16:37.736Z,28.35
2018-02-07T07:19:05.255Z,26.52
2018-02-07T07:21:33.540Z,27.40
2018-02-07T07:24:01.106Z,26.35
2018-02-07T07:26:28.633Z,26.48
2018-02-07T07:28:56.183Z,26.50
2018-02-07T07:31:23.713Z,26.90
2018-02-07T07:33:51.267Z,26.50
2018-02-07T07:36:18.818Z,27.25
2018-02-07T07:38:46.419Z,24.92
2018-02-07T07:41:13.916Z,27.73
2018-02-07T07:43:41.418Z,25.50
2018-02-07T07:46:08.962Z,27.20
2018-02-07T07:48:36.465Z,26.95
2018-02-07T07:51:03.999Z,27.50
2018-02-07T07:53:31.523Z,28.00
2018-02-07T07:55:59.054Z,28.85
2018-02-07T07:58:27.366Z,29.60
2018-02-07T08:00:54.880Z,28.05
2018-02-07T08:03:23.185Z,27.65
2018-02-07T08:05:52.648Z,27.75
2018-02-07T08:08:20.204Z,28.17
2018-02-07T08:10:48.545Z,27.83
2018-02-07T08:13:16.080Z,29.50
2018-02-07T08:15:43.611Z,28.75
2018-02-07T08:18:11.132Z,27.83
2018-02-07T08:20:38.663Z,27.10
2018-02-07T08:23:06.190Z,27.75
2018-02-07T08:25:34.479Z,26.62
2018-02-07T08:28:02.746Z,27.77
2018-02-07T08:30:31.047Z,27.67
2018-02-07T08:32:58.572Z,27.50
2018-02-07T08:35:26.119Z,27.92
2018-02-07T08:37:53.636Z,27.60
2018-02-07T08:40:21.163Z,27.60
2018-02-07T08:42:49.451Z,27.42
2018-02-07T08:45:17.714Z,26.10
2018-02-07T08:47:46.008Z,29.12
2018-02-07T08:50:13.520Z,28.87
2018-02-07T08:52:41.033Z,28.67
2018-02-07T08:55:08.582Z,28.08
2018-02-07T08:57:36.113Z,26.45
2018-02-07T09:00:03.650Z,29.40
2018-02-07T09:02:31.184Z,31.52
2018-02-07T09:04:58.725Z,30.20
2018-02-07T09:07:26.258Z,29.85
2018-02-07T09:09:54.527Z,28.75
2018-02-07T09:12:22.827Z,29.60
2018-02-07T09:14:50.335Z,28.25
2018-02-07T09:17:17.886Z,31.25
2018-02-07T09:19:45.386Z,31.52
2018-02-07T09:22:13.717Z,31.20
2018-02-07T09:24:41.227Z,29.75
2018-02-07T09:27:09.480Z,31.35
2018-02-07T09:29:37.004Z,30.17
2018-02-07T09:32:04.540Z,31.60
2018-02-07T09:34:32.083Z,30.10
2018-02-07T09:36:59.600Z,31.90
2018-02-07T09:39:27.102Z,30.05
2018-02-07T09:41:55.404Z,31.35
2018-02-07T09:44:22.916Z,30.90
2018-02-07T09:46:51.211Z,32.35
2018-02-07T09:49:19.807Z,30.55
2018-02-07T09:51:47.310Z,30.40
2018-02-07T09:54:14.871Z,29.65
2018-02-07T09:56:42.438Z,30.60
2018-02-07T09:59:09.951Z,29.27
2018-02-07T10:01:37.458Z,31.23
2018-02-07T10:04:04.982Z,29.40
2018-02-07T10:06:32.513Z,30.55
2018-02-07T10:09:00.024Z,30.85
2018-02-07T10:11:27.567Z,30.98
2018-02-07T10:13:55.075Z,30.23
2018-02-07T10:16:23.389Z,31.40
2018-02-07T10:18:50.890Z,32.00
2018-02-07T10:21:18.411Z,31.33
2018-02-07T10:23:45.916Z,32.60
2018-02-07T10:26:14.279Z,32.03
2018-02-07T10:28:41.893Z,32.10
2018-02-07T10:31:09.462Z,31.98
2018-02-07T10:33:36.959Z,32.85
2018-02-07T10:36:04.482Z,31.60
2018-02-07T10:38:31.973Z,31.17
2018-02-07T10:40:59.508Z,31.92
2018-02-07T10:43:27.012Z,31.45
2018-02-07T10:45:55.329Z,32.42
2018-02-07T10:48:22.831Z,32.72
2018-02-07T10:50:50.350Z,32.40
2018-02-07T10:53:17.888Z,31.87
2018-02-07T10:55:45.409Z,32.08
2018-02-07T10:58:13.703Z,32.78
2018-02-07T11:00:42.010Z,32.70
2018-02-07T11:03:10.309Z,33.40
2018-02-07T11:05:37.850Z,33.08
2018-02-07T11:08:05.388Z,35.08
2018-02-07T11:10:32.937Z,34.00
2018-02-07T11:13:01.239Z,33.78
2018-02-07T11:15:28.763Z,33.97
2018-02-07T11:17:57.043Z,34.65
2018-02-07T11:20:24.543Z,34.15
2018-02-07T11:22:52.090Z,34.75
2018-02-07T11:25:19.651Z,34.60
2018-02-07T11:27:47.185Z,33.28
2018-02-07T11:30:14.734Z,34.50
2018-02-07T11:32:43.027Z,34.72
2018-02-07T11:35:10.567Z,34.50
2018-02-07T11:37:38.872Z,34.78
2018-02-07T11:40:06.392Z,32.47
2018-02-07T11:42:34.688Z,33.53
2018-02-07T11:45:02.981Z,35.60
2018-02-07T11:47:30.570Z,34.50
2018-02-07T11:49:58.064Z,35.70
2018-02-07T11:52:25.579Z,34.78
2018-02-07T11:54:53.092Z,34.40
2018-02-07T11:57:20.648Z,35.30
2018-02-07T11:59:48.186Z,33.47
2018-02-07T12:02:15.742Z,34.73
2018-02-07T12:04:43.279Z,35.60
2018-02-07T12:07:10.808Z,35.43
2018-02-07T12:09:38.362Z,35.47
2018-02-07T12:12:05.870Z,36.20
2018-02-07T12:14:33.372Z,36.30
2018-02-07T12:17:00.900Z,39.50
2018-02-07T12:19:28.400Z,36.80
2018-02-07T12:21:55.990Z,36.57
2018-02-07T12:24:23.495Z,37.40
2018-02-07T12:26:51.767Z,37.80
2018-02-07T12:29:20.059Z,36.60
2018-02-07T12:31:47.558Z,37.17
2018-02-07T12:34:18.039Z,37.30
2018-02-07T12:36:45.576Z,36.90
2018-02-07T12:39:13.103Z,39.23
2018-02-07T12:41:40.621Z,36.63
2018-02-07T12:44:23.887Z,36.87
2018-02-07T12:46:51.405Z,37.07
2018-02-07T12:49:18.940Z,35.87
2018-02-07T12:51:46.496Z,38.30
2018-02-07T12:54:14.007Z,36.87
2018-02-07T12:56:41.527Z,35.93
2018-02-07T12:59:09.840Z,37.30
2018-02-07T13:01:38.128Z,36.63
2018-02-07T13:04:05.659Z,37.38
2018-02-07T13:06:33.192Z,36.08
2018-02-07T13:09:01.506Z,35.70
2018-02-07T13:11:29.038Z,37.17
2018-02-07T13:13:57.358Z,35.90
2018-02-07T13:16:24.879Z,36.25
2018-02-07T13:18:53.166Z,35.65
2018-02-07T13:21:20.704Z,35.65
2018-02-07T13:23:49.027Z,35.05
2018-02-07T13:26:16.594Z,34.90
2018-02-07T13:28:44.135Z,33.65
2018-02-07T13:31:11.671Z,34.40
2018-02-07T13:33:39.955Z,35.47
2018-02-07T13:36:07.485Z,35.38
2018-02-07T13:38:34.987Z,35.35
2018-02-07T13:41:02.510Z,34.35
2018-02-07T13:43:30.817Z,33.10
2018-02-07T13:45:58.380Z,33.90
2018-02-07T13:48:25.921Z,36.13
2018-02-07T13:50:53.429Z,35.58
2018-02-07T13:53:20.960Z,35.63
2018-02-07T13:55:49.259Z,39.55
2018-02-07T13:58:16.790Z,37.33
2018-02-07T14:00:49.939Z,37.42
2018-02-07T14:03:17.496Z,36.13
2018-02-07T14:05:44.995Z,37.28
2018-02-07T14:08:12.498Z,38.28
2018-02-07T14:10:40.024Z,37.03
2018-02-07T14:13:07.522Z,38.28
2018-02-07T14:15:35.070Z,38.17
2018-02-07T14:18:02.593Z,38.17
2018-02-07T14:20:30.094Z,36.53
2018-02-07T14:22:57.663Z,36.60
2018-02-07T14:25:25.950Z,38.25
2018-02-07T14:27:54.228Z,38.72
2018-02-07T14:30:22.526Z,38.42
2018-02-07T14:32:50.083Z,35.35
2018-02-07T14:35:17.734Z,39.13
2018-02-07T14:40:44.494Z,37.75
2018-02-07T14:43:12.014Z,38.55
2018-02-07T14:45:39.547Z,36.83
2018-02-07T14:48:07.070Z,39.03
2018-02-07T14:50:35.400Z,37.78
2018-02-07T14:53:02.908Z,36.60
2018-02-07T14:55:30.426Z,37.20
2018-02-07T14:57:58.005Z,36.53
2018-02-07T15:00:26.282Z,36.45
2018-02-07T15:02:54.597Z,36.70
2018-02-07T15:05:22.104Z,36.30
2018-02-07T15:07:49.629Z,36.97
2018-02-07T15:10:17.169Z,35.95
2018-02-07T15:12:44.729Z,35.17
2018-02-07T15:15:12.306Z,36.30
2018-02-07T15:17:39.808Z,37.15
2018-02-07T15:20:08.156Z,36.90
2018-02-07T15:22:35.744Z,36.13
2018-02-07T15:27:39.167Z,40.67
2018-02-07T15:30:07.509Z,38.67
2018-02-07T15:32:35.088Z,38.03
2018-02-07T15:35:03.491Z,37.55
2018-02-07T15:37:31.801Z,38.30
2018-02-07T15:39:59.456Z,36.88
2018-02-07T15:42:26.978Z,37.78
2018-02-07T15:44:55.566Z,37.30
2018-02-07T15:47:23.883Z,38.00
2018-02-07T15:49:51.498Z,39.13
2018-02-07T15:52:19.866Z,37.83
2018-02-07T15:54:47.455Z,36.90
2018-02-07T15:57:15.743Z,36.10
2018-02-07T15:59:43.267Z,35.75
2018-02-07T16:02:10.910Z,36.50
2018-02-07T16:04:38.438Z,37.85
2018-02-07T16:07:05.987Z,35.35
2018-02-07T16:09:33.507Z,33.95
2018-02-07T16:12:01.848Z,34.60
2018-02-07T16:14:29.414Z,35.45
2018-02-07T16:16:56.958Z,35.30
2018-02-07T16:19:24.474Z,36.70
2018-02-07T16:21:52.770Z,37.97
2018-02-07T16:24:20.403Z,36.35
2018-02-07T16:26:48.934Z,36.10
2018-02-07T16:29:16.470Z,37.08
2018-02-07T16:31:44.007Z,35.55
2018-02-07T16:34:12.266Z,38.05
2018-02-07T16:36:39.844Z,35.58
2018-02-07T16:39:08.164Z,37.58
2018-02-07T16:41:35.686Z,37.78
2018-02-07T16:44:03.239Z,38.22
2018-02-07T16:46:31.543Z,36.88
2018-02-07T16:48:59.065Z,38.95
2018-02-07T16:51:26.600Z,37.00
2018-02-07T16:53:54.123Z,38.88
2018-02-07T16:56:21.643Z,38.78
2018-02-07T16:58:49.940Z,39.25
2018-02-07T17:01:18.256Z,40.47
2018-02-07T17:03:45.770Z,39.67
2018-02-07T17:06:13.340Z,40.20
2018-02-07T17:08:40.874Z,40.47
2018-02-07T17:11:08.451Z,40.17
2018-02-07T17:13:36.727Z,39.17
2018-02-07T17:16:04.277Z,39.03
2018-02-07T17:18:32.561Z,39.60
2018-02-07T17:21:00.090Z,40.55
2018-02-07T17:23:27.614Z,40.80
2018-02-07T17:25:56.031Z,38.92
2018-02-07T17:28:23.562Z,39.38
2018-02-07T17:30:51.095Z,37.55
2018-02-07T17:33:18.614Z,37.40
2018-02-07T17:35:46.160Z,38.00
2018-02-07T17:38:14.941Z,36.95
2018-02-07T17:40:42.453Z,35.65
2018-02-07T17:43:09.968Z,37.35
2018-02-07T17:45:38.369Z,38.28
2018-02-07T17:48:06.656Z,40.20
2018-02-07T17:50:34.988Z,40.28
2018-02-07T17:53:02.517Z,38.78
2018-02-07T17:55:30.097Z,38.67
2018-02-07T17:57:57.669Z,37.47
2018-02-07T18:00:25.220Z,37.08
2018-02-07T18:02:52.827Z,37.97
2018-02-07T18:05:20.581Z,36.17
2018-02-07T18:07:48.170Z,37.63
2018-02-07T18:10:31.493Z,37.63
2018-02-07T18:12:59.077Z,38.45
2018-02-07T18:15:27.657Z,39.28
2018-02-07T18:17:55.294Z,38.65
2018-02-07T18:20:22.844Z,39.30
2018-02-07T18:22:51.171Z,38.78
2018-02-07T18:25:18.777Z,42.80
2018-02-07T18:27:47.218Z,40.15
2018-02-07T18:30:16.880Z,38.78
2018-02-07T18:32:44.821Z,37.50
2018-02-07T18:35:12.421Z,39.33
2018-02-07T18:37:39.998Z,38.58
2018-02-07T18:40:07.536Z,39.88
2018-02-07T18:42:35.138Z,40.10
2018-02-07T18:45:03.714Z,39.20
2018-02-07T18:47:32.442Z,38.35
2018-02-07T18:50:00.799Z,38.60
2018-02-07T18:52:28.327Z,39.97
2018-02-07T18:54:55.880Z,41.60
2018-02-07T18:57:23.616Z,38.50
2018-02-07T18:59:51.349Z,37.22
2018-02-07T19:02:19.021Z,36.83
2018-02-07T19:04:47.414Z,35.35
2018-02-07T19:07:15.714Z,37.28
2018-02-07T19:09:43.248Z,35.20
2018-02-07T19:12:12.197Z,35.90
2018-02-07T19:14:40.250Z,35.35
2018-02-07T19:17:07.834Z,35.83
2018-02-07T19:22:15.511Z,36.78
2018-02-07T19:24:43.011Z,34.88
2018-02-07T19:27:10.780Z,34.58
2018-02-07T19:29:38.439Z,36.40
2018-02-07T19:32:05.975Z,36.55
2018-02-07T19:34:33.545Z,37.40
2018-02-07T19:37:01.104Z,36.42
2018-02-07T19:39:29.728Z,35.88
2018-02-07T19:41:57.353Z,36.58
2018-02-07T19:44:24.868Z,35.22
2018-02-07T19:46:52.430Z,36.45
2018-02-07T19:49:19.975Z,36.47
2018-02-07T19:51:48.364Z,35.83
2018-02-07T19:54:15.962Z,34.63
2018-02-07T19:56:44.284Z,35.28
2018-02-07T19:59:12.604Z,34.28
2018-02-07T20:01:40.133Z,33.25
2018-02-07T20:04:08.086Z,35.85
2018-02-07T20:06:35.671Z,36.72
2018-02-07T20:09:03.225Z,36.65
2018-02-07T20:11:30.747Z,35.60
2018-02-07T20:13:58.401Z,36.15
2018-02-07T20:16:26.902Z,37.08
2018-02-07T20:18:55.221Z,36.35
2018-02-07T20:21:22.757Z,36.45
2018-02-07T20:23:50.291Z,37.33
2018-02-07T20:26:18.644Z,38.38
2018-02-07T20:28:46.233Z,37.10
2018-02-07T20:31:14.531Z,36.65
2018-02-07T20:33:42.118Z,37.20
2018-02-07T20:36:09.648Z,38.88
2018-02-07T20:38:37.337Z,37.65
2018-02-07T20:41:04.881Z,36.85
2018-02-07T20:43:32.423Z,37.28
2018-02-07T20:46:00.706Z,39.42
2018-02-07T20:48:28.295Z,38.83
2018-02-07T20:50:55.832Z,39.72
2018-02-07T20:53:23.377Z,38.15
2018-02-07T20:55:51.677Z,39.80
2018-02-07T20:58:19.212Z,38.95
2018-02-07T21:00:47.599Z,39.25
2018-02-07T21:03:15.123Z,40.65
2018-02-07T21:05:42.685Z,38.25
2018-02-07T21:08:10.243Z,39.15
2018-02-07T21:10:37.806Z,41.35
2018-02-07T21:13:06.169Z,39.40
2018-02-07T21:15:34.651Z,39.45
2018-02-07T21:18:02.237Z,37.72
2018-02-07T21:20:30.685Z,40.00
2018-02-07T21:22:58.284Z,40.15
2018-02-07T21:25:25.881Z,38.33
2018-02-07T21:27:53.409Z,39.65
2018-02-07T21:30:21.243Z,39.20
2018-02-07T21:32:48.798Z,39.55
2018-02-07T21:35:16.299Z,40.50
2018-02-07T21:37:44.062Z,38.22
2018-02-07T21:40:11.851Z,49.95
2018-02-07T21:42:39.437Z,44.85
2018-02-07T21:45:06.961Z,43.55
2018-02-07T21:47:34.495Z,44.90
2018-02-07T21:50:02.822Z,46.90
2018-02-07T21:52:30.345Z,43.55
2018-02-07T21:54:57.863Z,44.60
2018-02-07T21:57:26.183Z,45.35
2018-02-07T21:59:53.701Z,43.05
2018-02-07T22:02:23.136Z,41.08
2018-02-07T22:04:50.655Z,43.87
2018-02-07T22:07:18.181Z,44.22
2018-02-07T22:09:45.767Z,43.58
2018-02-07T22:12:13.296Z,44.58
2018-02-07T22:14:40.837Z,46.35
2018-02-07T22:17:08.400Z,43.33
2018-02-07T22:19:35.912Z,47.45
2018-02-07T22:22:03.404Z,44.67
2018-02-07T22:24:30.946Z,51.40
2018-02-07T22:26:59.256Z,49.28
2018-02-07T22:29:26.759Z,45.70
2018-02-07T22:31:54.283Z,47.05
2018-02-07T22:34:21.934Z,45.92
2018-02-07T22:36:49.449Z,46.47
2018-02-07T22:39:16.965Z,46.83
2018-02-07T22:41:44.484Z,45.65
2018-02-07T22:44:12.748Z,49.25
2018-02-07T22:46:41.064Z,48.55
2018-02-07T22:49:08.573Z,48.30
2018-02-07T22:51:36.112Z,48.15
2018-02-07T22:54:03.626Z,45.40
2018-02-07T22:56:31.168Z,46.60
2018-02-07T22:58:59.996Z,48.05
2018-02-07T23:01:27.524Z,47.62
2018-02-07T23:03:55.824Z,47.15
2018-02-07T23:06:23.342Z,49.00
2018-02-07T23:08:51.644Z,49.20
2018-02-07T23:11:19.166Z,48.08
2018-02-07T23:13:46.722Z,46.42
2018-02-07T23:16:14.267Z,47.17
2018-02-07T23:18:41.799Z,47.45
2018-02-07T23:21:09.321Z,47.10
2018-02-07T23:23:37.593Z,46.00
2018-02-07T23:26:05.988Z,44.88
2018-02-07T23:28:33.491Z,44.92
2018-02-07T23:31:00.992Z,45.10
2018-02-07T23:33:29.278Z,45.20
2018-02-07T23:35:57.543Z,43.90
2018-02-07T23:38:25.844Z,42.53
2018-02-07T23:40:53.336Z,43.70
2018-02-07T23:43:20.848Z,45.38
2018-02-07T23:45:49.128Z,45.45
2018-02-07T23:48:16.651Z,43.58
2018-02-07T23:50:44.191Z,45.70
2018-02-07T23:53:11.713Z,43.67
2018-02-07T23:55:39.245Z,43.50
2018-02-07T23:58:07.507Z,43.90
